Time;durP1;ratioP1;P1;durP2;ratioP2;P2;SDS_P1;SDS_P2;PMS_P1;PMS_P2;Temp;Humidity;BMP_temperature;BMP_pressure;BME280_temperature;BME280_humidity;BME280_pressure;Samples;Min_cycle;Max_cycle;Signal;HPM_P1;HPM_P2
2023/09/21 00:01:23;;;;;;;2.92;2.83;;;20.80;99.90;;;21.03;81.74;99661.09;5053935;28;19927;-73
2023/09/21 00:03:54;;;;;;;2.78;2.67;;;20.80;99.90;;;21.07;81.06;99651.84;5053990;28;20044;-71
2023/09/21 00:06:24;;;;;;;3.38;3.17;;;20.80;99.90;;;20.46;80.81;99539.47;5054030;28;20116;-72
2023/09/21 00:08:53;;;;;;;3.33;3.13;;;20.90;99.90;;;21.33;80.21;99664.44;5053990;28;20033;-71
2023/09/21 00:11:23;;;;;;;6.00;3.07;;;21.00;99.90;;;21.23;80.16;99658.81;5053876;28;20071;-71
2023/09/21 00:13:52;;;;;;;3.05;2.92;;;21.00;99.90;;;21.25;80.01;99648.78;5053781;28;20056;-71
2023/09/21 00:16:25;;;;;;;2.75;2.65;;;21.00;99.90;;;21.42;79.49;99656.59;5053978;28;20056;-71
2023/09/21 00:18:53;;;;;;;4.18;3.30;;;21.10;99.90;;;21.46;79.29;99666.19;5053012;28;20056;-72
2023/09/21 00:21:23;;;;;;;2.92;2.83;;;21.20;99.90;;;21.48;79.08;99684.91;5053774;28;20041;-71
2023/09/21 00:23:52;;;;;;;2.80;2.70;;;21.20;99.90;;;21.56;78.73;99653.81;5053692;28;20075;-72
2023/09/21 00:26:20;;;;;;;3.30;3.10;;;21.30;99.90;;;21.59;78.59;99655.44;5052525;28;20102;-71
2023/09/21 00:28:50;;;;;;;2.50;2.40;;;21.30;99.90;;;21.64;77.96;99647.88;5065949;28;20051;-72
2023/09/21 00:31:19;;;;;;;;;;;21.30;99.90;;;21.68;78.02;99646.72;5067958;28;20479;-71
2023/09/21 00:33:47;;;;;;;5.15;3.70;;;21.40;99.90;;;21.66;77.77;99640.56;5053058;28;19955;-72
2023/09/21 00:36:17;;;;;;;3.72;3.53;;;21.40;99.90;;;21.70;77.86;99639.38;5052577;28;20037;-72
2023/09/21 00:38:48;;;;;;;4.28;3.55;;;21.40;99.90;;;21.69;77.99;99647.56;5053090;28;20135;-72
2023/09/21 00:41:17;;;;;;;;;;;21.40;99.90;;;21.62;78.06;99625.63;5053278;28;20049;-72
2023/09/21 00:43:46;;;;;;;3.40;3.22;;;21.50;99.90;;;21.75;77.50;99625.63;5052938;28;20381;-72
2023/09/21 00:46:17;;;;;;;2.78;2.67;;;21.50;99.90;;;21.76;77.64;99638.97;5053254;28;20099;-71
2023/09/21 00:48:46;;;;;;;2.58;2.47;;;21.50;99.90;;;21.83;77.83;99634.94;5053459;28;20055;-71
2023/09/21 00:51:16;;;;;;;2.53;2.42;;;21.50;99.90;;;21.84;77.71;99625.88;5053438;28;20103;-71
2023/09/21 00:53:47;;;;;;;3.30;3.10;;;21.50;99.90;;;21.83;77.83;99634.94;5051989;28;20405;-71
2023/09/21 00:56:18;;;;;;;3.65;3.03;;;21.60;99.90;;;21.80;77.79;99628.84;5056382;28;20045;-70
2023/09/21 00:58:53;;;;;;;3.00;2.90;;;21.50;99.90;;;21.70;77.60;99623.25;5035135;28;20044;-71
2023/09/21 01:01:27;;;;;;;2.63;2.53;;;21.50;99.90;;;21.81;78.00;99631.47;5052952;28;20041;-71
2023/09/21 01:03:59;;;;;;;3.08;2.97;;;21.50;99.90;;;21.82;77.91;99611.66;5053188;28;20116;-71
2023/09/21 01:06:28;;;;;;;2.78;2.67;;;21.50;99.90;;;21.83;77.73;99602.63;5053232;28;20048;-71
2023/09/21 01:08:56;;;;;;;2.33;2.22;;;21.50;99.90;;;21.87;77.72;99620.28;5052957;28;20041;-71
2023/09/21 01:11:26;;;;;;;3.85;3.55;;;21.60;99.90;;;21.83;77.93;99613.38;5052749;28;20120;-72
2023/09/21 01:13:55;;;;;;;3.28;3.17;;;21.60;99.90;;;21.93;77.89;99625.22;5052696;28;20056;-71
2023/09/21 01:16:25;;;;;;;2.50;2.40;;;21.60;99.90;;;21.87;77.97;99614.91;5052509;28;20080;-71
2023/09/21 01:18:54;;;;;;;2.70;2.60;;;21.60;99.90;;;21.92;78.10;99622.63;5052808;28;20041;-71
2023/09/21 01:21:35;;;;;;;2.63;2.53;;;21.60;99.90;;;21.95;78.12;99601.72;5064790;28;20076;-71
2023/09/21 01:24:06;;;;;;;2.53;2.42;;;21.70;99.90;;;21.99;77.81;99603.22;5049800;28;20060;-71
2023/09/21 01:26:36;;;;;;;2.50;2.40;;;21.70;99.90;;;21.89;77.91;99593.25;5052667;28;20049;-71
2023/09/21 01:29:06;;;;;;;2.13;2.03;;;21.60;99.90;;;21.94;77.92;99605.41;5051948;28;20051;-71
2023/09/21 01:31:34;;;;;;;2.70;2.60;;;21.60;99.90;;;22.00;77.80;99602.28;5048048;28;20049;-71
2023/09/21 01:34:04;;;;;;;2.33;2.22;;;21.70;99.90;;;21.98;77.86;99597.97;5050880;28;20068;-71
2023/09/21 01:36:33;;;;;;;2.58;2.47;;;21.70;99.90;;;21.98;77.63;99593.44;5051992;28;20041;-72
2023/09/21 01:39:08;;;;;;;2.47;2.38;;;21.70;99.90;;;22.05;77.81;99591.16;5047018;28;20053;-71
2023/09/21 01:41:37;;;;;;;2.50;2.40;;;21.70;99.90;;;22.07;78.01;99590.09;5047613;28;20140;-71
2023/09/21 01:44:07;;;;;;;3.20;3.00;;;21.80;99.90;;;22.06;77.84;99593.75;5051648;28;20041;-70
2023/09/21 01:46:35;;;;;;;2.65;2.55;;;21.70;99.90;;;22.06;78.81;99612.63;5052019;28;20079;-72
2023/09/21 01:49:04;;;;;;;2.70;2.60;;;21.70;99.90;;;21.98;81.33;99608.72;5050938;28;20056;-72
2023/09/21 01:51:34;;;;;;;2.65;2.55;;;21.70;99.90;;;21.87;83.49;99601.44;5051942;28;20099;-72
2023/09/21 01:54:05;;;;;;;2.28;2.17;;;21.60;99.90;;;21.69;84.75;99605.38;5036466;28;20045;-72
2023/09/21 01:56:36;;;;;;;3.05;2.85;;;21.40;99.90;;;21.65;86.40;99613.75;5050904;28;20047;-73
2023/09/21 01:59:08;;;;;;;2.60;2.50;;;21.30;99.90;;;21.39;88.59;99607.50;5057215;28;20040;-72
2023/09/21 02:01:36;;;;;;;2.35;2.25;;;21.10;99.90;;;21.47;89.51;99618.59;5051887;28;20110;-72
2023/09/21 02:04:07;;;;;;;2.53;2.42;;;21.00;99.90;;;21.44;89.92;99626.88;5051990;28;20102;-72
2023/09/21 02:06:36;;;;;;;2.58;2.47;;;21.00;99.90;;;21.36;90.69;99615.78;5052205;28;20056;-72
2023/09/21 02:09:05;;;;;;;2.35;2.25;;;21.00;99.90;;;21.36;90.97;99610.41;5052080;28;20189;-72
2023/09/21 02:11:36;;;;;;;3.13;2.95;;;21.00;99.90;;;21.22;91.12;99597.03;5051818;28;20041;-73
2023/09/21 02:14:08;;;;;;;2.60;2.50;;;20.90;99.90;;;21.09;92.21;99614.97;5052025;28;20470;-72
2023/09/21 02:16:36;;;;;;;3.35;3.15;;;20.70;99.90;;;21.00;93.58;99594.88;5063837;28;20045;-72
2023/09/21 02:19:06;;;;;;;6.30;3.47;;;20.60;99.90;;;20.90;94.80;99599.19;5050592;28;20072;-72
2023/09/21 02:21:35;;;;;;;2.60;2.50;;;20.50;99.90;;;20.75;95.73;99588.59;5035818;28;20049;-72
2023/09/21 02:24:04;;;;;;;3.38;3.17;;;20.50;99.90;;;20.79;96.86;99593.63;5050696;28;20045;-72
2023/09/21 02:26:37;;;;;;;2.47;2.38;;;20.40;99.90;;;20.68;97.59;99582.75;5050645;28;20103;-72
2023/09/21 02:29:09;;;;;;;3.65;3.30;;;20.30;99.90;;;20.57;97.89;99567.34;5064867;28;20380;-72
2023/09/21 02:31:38;;;;;;;2.88;2.78;;;20.30;99.90;;;20.58;98.62;99593.25;5051656;28;20044;-72
2023/09/21 02:34:08;;;;;;;2.63;2.53;;;20.20;99.90;;;20.44;98.40;99552.13;5063961;28;20045;-72
2023/09/21 02:36:38;;;;;;;3.25;2.97;;;20.20;99.90;;;20.50;98.65;99562.47;5046093;28;20048;-72
2023/09/21 02:39:08;;;;;;;2.63;2.53;;;20.10;99.90;;;20.44;98.82;99544.91;5051343;28;20103;-71
2023/09/21 02:41:37;;;;;;;3.10;3.00;;;20.10;99.90;;;20.44;99.08;99547.59;5064510;28;20115;-72
2023/09/21 02:44:08;;;;;;;2.80;2.70;;;20.10;99.90;;;20.42;99.44;99536.09;5054792;28;20133;-71
2023/09/21 02:46:37;;;;;;;2.70;2.60;;;20.10;99.90;;;20.34;100.00;99542.94;5055565;28;20064;-71
2023/09/21 02:49:07;;;;;;;3.10;3.00;;;20.00;99.90;;;20.31;100.00;99559.25;5055389;28;20049;-72
2023/09/21 02:51:35;;;;;;;3.25;3.15;;;20.00;99.90;;;20.31;100.00;99570.88;5067711;28;20049;-72
2023/09/21 02:54:11;;;;;;;3.28;3.17;;;19.90;99.90;;;20.26;100.00;99562.25;5047374;28;20047;-72
2023/09/21 02:56:39;;;;;;;2.90;2.80;;;19.90;99.90;;;20.28;100.00;99559.47;5054249;28;20360;-72
2023/09/21 02:59:13;;;;;;;3.00;2.90;;;19.90;99.90;;;20.21;100.00;99539.34;5054122;28;20446;-72
2023/09/21 03:01:42;;;;;;;3.22;3.13;;;19.90;99.90;;;20.17;100.00;99564.66;5054224;28;20170;-72
2023/09/21 03:04:12;;;;;;;2.40;2.30;;;19.80;99.90;;;20.05;100.00;99558.25;5054043;28;20061;-72
2023/09/21 03:06:43;;;;;;;2.50;2.40;;;19.70;99.90;;;19.99;100.00;99560.44;5055030;28;20048;-71
2023/09/21 03:09:11;;;;;;;3.20;3.00;;;19.70;99.90;;;19.88;100.00;99565.63;5055016;28;20107;-71
2023/09/21 03:11:40;;;;;;;3.17;3.05;;;19.60;99.90;;;19.90;100.00;99550.31;5055287;28;20453;-72
2023/09/21 03:14:10;;;;;;;3.40;3.10;;;19.60;99.90;;;19.94;100.00;99552.66;5067400;28;20064;-71
2023/09/21 03:16:42;;;;;;;3.15;3.05;;;19.60;99.90;;;20.01;100.00;99537.03;5054273;28;20049;-72
2023/09/21 03:19:11;;;;;;;2.75;2.65;;;19.60;99.90;;;19.96;100.00;99542.69;5053710;28;20140;-72
2023/09/21 03:21:42;;;;;;;4.93;4.68;;;19.60;99.90;;;19.93;100.00;99533.97;5062343;28;20075;-71
2023/09/21 03:24:12;;;;;;;2.92;2.83;;;19.60;99.90;;;19.69;100.00;99497.00;5067149;28;20569;-72
2023/09/21 03:26:40;;;;;;;2.90;2.80;;;19.60;99.90;;;19.89;100.00;99541.38;5037466;28;20079;-71
2023/09/21 03:29:12;;;;;;;3.47;3.10;;;19.60;99.90;;;19.89;100.00;99536.00;5054729;28;20041;-72
2023/09/21 03:31:42;;;;;;;3.60;3.40;;;19.60;99.90;;;19.88;100.00;99531.59;5053434;28;20470;-72
2023/09/21 03:34:12;;;;;;;3.08;2.97;;;19.60;99.90;;;19.89;100.00;99538.69;5036684;28;20048;-71
2023/09/21 03:36:42;;;;;;;2.85;2.75;;;19.50;99.90;;;19.98;100.00;99532.72;5054581;28;20045;-70
2023/09/21 03:39:10;;;;;;;3.47;3.38;;;19.60;99.90;;;19.99;100.00;99531.78;5052677;28;20049;-71
2023/09/21 03:41:39;;;;;;;3.00;2.90;;;19.70;99.90;;;19.92;100.00;99526.91;5053272;28;20095;-71
2023/09/21 03:44:07;;;;;;;3.30;3.13;;;19.60;99.90;;;19.97;100.00;99536.38;5054701;28;20072;-71
2023/09/21 03:46:38;;;;;;;3.10;3.00;;;19.60;99.90;;;19.95;100.00;99519.50;5067405;28;20063;-73
2023/09/21 03:49:07;;;;;;;;;;;19.60;99.90;;;19.90;100.00;99516.25;5050361;28;20061;-72
2023/09/21 03:51:36;;;;;;;3.40;3.25;;;19.60;99.90;;;19.90;100.00;99536.88;5064221;28;19921;-72
2023/09/21 03:54:05;;;;;;;2.70;2.60;;;19.50;99.90;;;19.90;100.00;99524.28;5051976;28;20491;-73
2023/09/21 03:56:36;;;;;;;2.90;2.80;;;19.60;99.90;;;19.88;100.00;99545.00;5053952;28;20053;-71
2023/09/21 03:59:06;;;;;;;9.30;3.40;;;19.50;99.90;;;19.87;100.00;99518.25;5054428;28;20204;-70
2023/09/21 04:01:35;;;;;;;3.50;3.33;;;19.50;99.90;;;19.84;100.00;99524.69;5052706;28;20085;-71
2023/09/21 04:04:08;;;;;;;3.20;3.10;;;19.50;99.90;;;19.81;100.00;99524.91;5037925;28;20109;-71
2023/09/21 04:06:37;;;;;;;2.78;2.67;;;19.50;99.90;;;19.71;100.00;99515.69;5066109;28;20056;-71
2023/09/21 04:09:06;;;;;;;15.25;4.40;;;19.40;99.90;;;19.76;100.00;99516.28;5046724;28;20041;-71
2023/09/21 04:11:35;;;;;;;2.75;2.65;;;19.40;99.90;;;19.73;100.00;99505.72;5053926;28;20370;-70
2023/09/21 04:14:04;;;;;;;3.10;3.00;;;19.40;99.90;;;19.76;100.00;99511.75;5053898;28;20087;-71
2023/09/21 04:16:45;;;;;;;3.05;2.95;;;19.40;99.90;;;19.72;100.00;99512.06;5065696;28;20088;-70
2023/09/21 04:19:15;;;;;;;3.33;3.22;;;19.40;99.90;;;18.87;100.00;99369.94;5049040;28;20053;-71
2023/09/21 04:21:46;;;;;;;2.40;2.30;;;19.30;99.90;;;19.32;100.00;99453.78;5052425;28;20049;-71
2023/09/21 04:24:14;;;;;;;3.17;3.08;;;19.40;99.90;;;19.77;100.00;99518.88;5064860;28;20143;-71
2023/09/21 04:26:43;;;;;;;4.47;4.07;;;19.40;99.90;;;19.71;100.00;99523.75;5065743;28;20049;-70
2023/09/21 04:29:15;;;;;;;3.67;3.35;;;19.40;99.90;;;19.66;100.00;99523.19;5052448;28;20080;-71
2023/09/21 04:31:44;;;;;;;2.90;2.80;;;19.30;99.90;;;19.56;100.00;99482.66;5037240;28;20049;-71
2023/09/21 04:34:13;;;;;;;2.88;2.78;;;19.30;99.90;;;19.68;100.00;99500.69;5048855;28;20062;-70
2023/09/21 04:36:47;;;;;;;3.03;2.92;;;19.30;99.90;;;19.68;100.00;99508.72;5061523;28;20136;-71
2023/09/21 04:39:17;;;;;;;2.80;2.70;;;19.30;99.90;;;19.76;100.00;99514.44;5051271;28;20057;-72
2023/09/21 04:41:45;;;;;;;3.43;3.27;;;19.40;99.90;;;19.71;100.00;99537.16;5065260;28;20052;-72
2023/09/21 04:44:16;;;;;;;;;;;19.40;99.90;;;19.63;100.00;99494.72;5052349;28;20115;-72
2023/09/21 04:46:44;;;;;;;2.83;2.72;;;19.40;99.90;;;19.63;100.00;99508.13;5068554;28;20430;-72
2023/09/21 04:49:13;;;;;;;3.42;3.33;;;19.30;99.90;;;19.56;100.00;99512.16;5053231;28;20072;-72
2023/09/21 04:51:41;;;;;;;2.88;2.78;;;19.20;99.90;;;19.58;100.00;99498.66;5052696;28;20049;-71
2023/09/21 04:54:11;;;;;;;2.65;2.55;;;19.30;99.90;;;19.59;100.00;99500.38;5051048;28;20033;-71
2023/09/21 04:56:40;;;;;;;3.05;2.95;;;19.20;99.90;;;19.60;100.00;99500.28;5048144;28;20049;-71
2023/09/21 04:59:09;;;;;;;3.13;3.03;;;19.30;99.90;;;19.63;100.00;99521.53;5067101;28;20126;-71
2023/09/21 05:01:37;;;;;;;2.72;2.63;;;19.30;99.90;;;19.66;100.00;99512.44;5051549;28;20060;-73
2023/09/21 05:04:06;;;;;;;3.15;3.05;;;19.30;99.90;;;19.68;100.00;99513.22;5050796;28;20053;-72
2023/09/21 05:06:35;;;;;;;2.92;2.83;;;19.30;99.90;;;19.76;100.00;99535.06;5051893;28;20064;-71
2023/09/21 05:09:04;;;;;;;3.72;3.40;;;19.40;99.90;;;19.83;100.00;99543.56;5051952;28;20049;-72
2023/09/21 05:11:38;;;;;;;3.33;3.13;;;19.50;99.90;;;19.56;100.00;99551.53;5048567;28;20053;-72
2023/09/21 05:14:08;;;;;;;5.03;3.58;;;19.30;99.90;;;19.34;100.00;99556.47;5061178;28;20051;-71
2023/09/21 05:16:37;;;;;;;2.47;2.38;;;19.10;99.90;;;18.80;100.00;99555.28;5052718;28;20132;-70
2023/09/21 05:19:06;;;;;;;3.03;2.93;;;18.60;99.90;;;18.37;100.00;99551.50;5053015;28;20056;-68
2023/09/21 05:21:35;;;;;;;2.80;2.70;;;18.20;99.90;;;18.19;100.00;99552.56;5052575;28;20295;-73
2023/09/21 05:24:04;;;;;;;2.95;2.85;;;17.90;99.90;;;17.78;100.00;99466.59;5048350;28;20499;-71
2023/09/21 05:26:34;;;;;;;3.00;2.90;;;17.90;99.90;;;18.20;100.00;99570.34;5050553;28;20041;-72
2023/09/21 05:29:03;;;;;;;2.60;2.50;;;17.90;99.90;;;18.32;100.00;99568.78;5052943;28;20045;-72
2023/09/21 05:31:32;;;;;;;2.97;2.88;;;18.00;99.90;;;18.28;100.00;99562.75;5065203;28;20056;-72
2023/09/21 05:34:02;;;;;;;2.97;2.88;;;17.90;99.90;;;18.33;100.00;99567.84;5047061;28;20051;-69
2023/09/21 05:36:31;;;;;;;3.42;3.33;;;18.00;99.90;;;18.34;100.00;99565.06;5052723;28;20098;-67
2023/09/21 05:39:00;;;;;;;2.88;2.78;;;18.00;99.90;;;18.29;100.00;99568.97;5052686;28;20057;-69
2023/09/21 05:41:31;;;;;;;2.70;2.60;;;17.90;99.90;;;18.44;100.00;99573.47;5053018;28;20053;-69
2023/09/21 05:44:01;;;;;;;2.80;2.70;;;18.10;99.90;;;18.59;100.00;99584.19;5052637;28;20574;-70
2023/09/21 05:46:29;;;;;;;7.60;7.20;;;18.20;99.90;;;18.71;100.00;99588.84;5052594;28;20135;-70
2023/09/21 05:48:59;;;;;;;3.13;3.03;;;18.30;99.90;;;18.72;100.00;99576.28;5052306;28;20135;-70
2023/09/21 05:51:27;;;;;;;2.43;2.33;;;18.30;99.90;;;18.74;100.00;99569.91;5052190;28;20045;-70
2023/09/21 05:53:56;;;;;;;2.85;2.75;;;18.40;99.90;;;18.83;100.00;99571.19;5051559;28;20041;-70
2023/09/21 05:56:24;;;;;;;2.97;2.88;;;18.50;99.90;;;18.95;100.00;99574.97;5050465;28;20056;-70
2023/09/21 05:58:53;;;;;;;2.65;2.55;;;18.60;99.90;;;18.95;99.39;99574.97;5051941;28;20044;-70
2023/09/21 06:01:23;;;;;;;3.00;2.90;;;18.60;99.90;;;18.93;99.22;99573.22;5047283;28;20427;-70
2023/09/21 06:03:52;;;;;;;2.92;2.83;;;18.60;99.90;;;19.03;99.69;99578.06;5048110;28;20049;-69
2023/09/21 06:06:21;;;;;;;2.78;2.67;;;18.60;99.90;;;19.11;99.83;99581.09;5051757;28;20503;-70
2023/09/21 06:08:51;;;;;;;2.92;2.83;;;18.70;99.90;;;19.15;99.30;99577.28;5051955;28;20040;-70
2023/09/21 06:11:19;;;;;;;2.60;2.50;;;18.80;99.90;;;19.17;99.05;99588.78;5052072;28;20049;-69
2023/09/21 06:13:48;;;;;;;2.80;2.70;;;18.80;99.90;;;19.13;98.43;99584.56;5052337;28;20111;-69
2023/09/21 06:16:16;;;;;;;2.72;2.63;;;18.80;99.90;;;19.12;97.46;99580.16;5053772;28;20128;-69
2023/09/21 06:18:48;;;;;;;4.03;3.80;;;18.80;99.90;;;18.53;96.90;99576.50;5054877;28;20064;-69
2023/09/21 06:21:16;;;;;;;;;;;18.30;99.90;;;17.76;100.00;99569.25;5068869;28;20556;-69
2023/09/21 06:23:45;;;;;;;3.63;3.42;;;17.60;99.90;;;17.46;100.00;99550.34;5053930;28;19927;-70
2023/09/21 06:26:15;;;;;;;2.80;2.70;;;17.20;99.90;;;17.20;100.00;99560.69;5056065;28;20041;-70
2023/09/21 06:28:44;;;;;;;2.87;2.77;;;16.90;99.90;;;16.80;100.00;99549.38;5054623;28;20049;-69
2023/09/21 06:31:13;;;;;;;3.25;3.15;;;16.60;99.90;;;16.95;100.00;99574.47;5054710;28;20136;-69
2023/09/21 06:33:41;;;;;;;3.20;3.10;;;16.50;99.90;;;17.00;100.00;99572.41;5055944;28;20049;-69
2023/09/21 06:36:18;;;;;;;2.60;2.50;;;16.60;99.90;;;17.15;100.00;99588.50;5055900;28;20044;-69
2023/09/21 06:38:48;;;;;;;2.90;2.80;;;16.70;99.90;;;17.43;100.00;99585.28;5055697;28;20047;-69
2023/09/21 06:41:16;;;;;;;3.15;3.05;;;17.00;99.90;;;17.54;100.00;99596.28;5054543;28;20132;-69
2023/09/21 06:43:44;;;;;;;2.67;2.58;;;17.20;99.90;;;17.77;100.00;99613.78;5039653;28;20041;-69
2023/09/21 06:46:13;;;;;;;2.53;2.42;;;17.40;99.90;;;17.96;100.00;99622.56;5055574;28;20053;-69
2023/09/21 06:48:42;;;;;;;2.80;2.70;;;17.60;99.90;;;18.08;100.00;99621.88;5055156;28;20052;-69
2023/09/21 06:51:12;;;;;;;2.58;2.47;;;17.70;99.90;;;18.14;100.00;99620.69;5055207;28;20044;-69
2023/09/21 06:53:43;;;;;;;2.50;2.40;;;17.80;99.90;;;18.19;100.00;99606.09;5055498;28;20090;-68
2023/09/21 06:56:12;;;;;;;2.90;2.80;;;17.90;99.90;;;18.05;100.00;99589.94;5064703;28;20078;-69
2023/09/21 06:58:41;;;;;;;2.58;2.47;;;17.80;99.90;;;18.23;100.00;99617.50;5055055;28;20102;-70
2023/09/21 07:01:09;;;;;;;2.75;2.65;;;17.90;99.90;;;18.30;100.00;99613.53;5054908;28;20049;-70
2023/09/21 07:03:38;;;;;;;3.20;3.10;;;17.90;99.90;;;18.39;100.00;99605.00;5054949;28;20119;-70
2023/09/21 07:06:08;;;;;;;2.72;2.63;;;18.00;99.90;;;18.55;100.00;99603.19;5054798;28;20033;-70
2023/09/21 07:08:38;;;;;;;2.47;2.38;;;18.20;99.90;;;18.58;100.00;99598.50;5055195;28;20119;-70
2023/09/21 07:11:07;;;;;;;2.53;2.43;;;18.20;99.90;;;18.58;100.00;99603.03;5069266;28;20084;-72
2023/09/21 07:13:35;;;;;;;2.55;2.45;;;18.30;99.90;;;18.60;100.00;99612.69;5055037;28;20049;-71
2023/09/21 07:16:03;;;;;;;2.83;2.72;;;18.30;99.90;;;18.61;100.00;99619.78;5054927;28;20041;-70
2023/09/21 07:18:32;;;;;;;2.40;2.30;;;18.30;99.90;;;18.66;99.98;99622.22;5054583;28;20037;-71
2023/09/21 07:21:01;;;;;;;2.72;2.63;;;18.30;99.90;;;18.69;99.74;99627.38;5054703;28;20396;-72
2023/09/21 07:23:29;;;;;;;2.85;2.75;;;18.30;99.90;;;18.70;98.90;99624.59;5054634;28;20080;-72
2023/09/21 07:25:59;;;;;;;2.88;2.78;;;18.40;99.90;;;18.77;98.75;99622.44;5054813;28;20106;-71
2023/09/21 07:28:30;;;;;;;2.47;2.37;;;18.40;99.90;;;18.76;98.85;99589.41;5053964;28;20048;-70
2023/09/21 07:31:01;;;;;;;2.50;2.40;;;18.50;99.90;;;18.97;98.15;99614.09;5054500;28;20279;-70
2023/09/21 07:33:30;;;;;;;2.83;2.72;;;18.60;99.90;;;19.06;97.42;99607.34;5054528;28;20044;-69
2023/09/21 07:35:59;;;;;;;2.45;2.35;;;18.70;99.90;;;19.16;96.76;99604.03;5054410;28;20061;-71
2023/09/21 07:38:27;;;;;;;2.38;2.28;;;18.80;99.90;;;19.14;96.45;99602.38;5053206;28;20053;-70
2023/09/21 07:40:56;;;;;;;2.75;2.65;;;18.80;99.90;;;19.18;97.12;99606.63;5054274;28;20053;-69
2023/09/21 07:43:28;;;;;;;2.80;2.70;;;18.80;99.90;;;19.19;97.50;99613.69;5054901;28;20135;-70
2023/09/21 07:45:59;;;;;;;2.50;2.40;;;18.80;99.90;;;18.99;97.36;99588.06;5054246;28;20051;-70
2023/09/21 07:48:27;;;;;;;2.70;2.60;;;18.80;99.90;;;18.61;97.69;99528.72;5054384;28;20049;-75
2023/09/21 07:50:56;;;;;;;2.88;2.78;;;18.80;99.90;;;19.03;98.15;99621.78;5054072;28;20099;-73
2023/09/21 07:53:27;;;;;;;2.40;2.30;;;18.60;99.90;;;18.93;97.76;99625.94;5054291;28;20126;-73
2023/09/21 07:56:00;;;;;;;2.30;2.20;;;18.50;99.90;;;19.01;98.38;99628.19;5054406;28;20047;-71
2023/09/21 07:58:30;;;;;;;2.78;2.67;;;18.60;99.90;;;19.08;98.33;99640.28;5053939;28;20049;-71
2023/09/21 08:00:58;;;;;;;2.50;2.40;;;18.70;99.90;;;19.14;98.48;99640.78;5052530;28;20127;-71
2023/09/21 08:03:27;;;;;;;2.60;2.50;;;18.70;99.90;;;19.23;98.94;99642.91;5054261;28;20045;-70
2023/09/21 08:05:56;;;;;;;2.20;2.10;;;18.80;99.90;;;19.24;98.55;99641.09;5053967;28;20176;-71
2023/09/21 08:08:25;;;;;;;2.47;2.38;;;18.80;99.90;;;19.19;97.93;99646.72;5052309;28;20068;-70
2023/09/21 08:10:56;;;;;;;2.95;2.85;;;18.80;99.90;;;19.13;97.38;99625.66;5053679;28;20102;-72
2023/09/21 08:13:26;;;;;;;2.47;2.38;;;18.90;99.90;;;19.03;97.18;99631.66;5053744;28;20055;-68
2023/09/21 08:15:55;;;;;;;2.35;2.25;;;18.80;99.90;;;19.03;97.18;99647.75;5053466;28;20052;-69
2023/09/21 08:18:24;;;;;;;3.33;3.05;;;18.70;99.90;;;18.84;97.95;99634.53;5038452;28;20045;-70
2023/09/21 08:20:53;;;;;;;2.72;2.63;;;18.50;99.90;;;18.45;100.00;99644.81;5053889;28;20083;-69
2023/09/21 08:23:23;;;;;;;;;;;18.10;99.90;;;18.44;100.00;99648.47;5054787;28;20045;-72
2023/09/21 08:25:52;;;;;;;2.58;2.47;;;18.10;99.90;;;18.56;100.00;99651.28;5053552;28;20271;-72
2023/09/21 08:28:20;;;;;;;2.65;2.55;;;18.10;99.90;;;18.24;100.00;99660.25;5066316;28;20053;-69
2023/09/21 08:30:48;;;;;;;2.50;2.40;;;17.80;99.90;;;18.51;100.00;99656.06;5042654;28;20162;-73
2023/09/21 08:33:19;;;;;;;2.50;2.40;;;18.00;99.90;;;18.58;100.00;99654.75;5053643;28;20049;-73
2023/09/21 08:35:48;;;;;;;2.75;2.65;;;18.20;99.90;;;17.95;100.00;99650.25;5053500;28;20045;-70
2023/09/21 08:38:17;;;;;;;2.78;2.67;;;17.70;99.90;;;17.96;100.00;99652.00;5053416;28;20457;-74
2023/09/21 08:40:53;;;;;;;2.53;2.42;;;17.60;99.90;;;18.03;100.00;99645.34;5053194;28;20137;-72
2023/09/21 08:43:24;;;;;;;2.47;2.38;;;17.60;99.90;;;18.19;100.00;99648.94;5053870;28;20478;-77
2023/09/21 08:45:53;;;;;;;2.50;2.40;;;17.80;99.90;;;18.41;100.00;99652.13;5053276;28;20083;-77
2023/09/21 08:48:26;;;;;;;2.40;2.30;;;18.00;99.90;;;18.58;100.00;99641.38;5053201;28;20505;-78
2023/09/21 08:50:55;;;;;;;2.80;2.70;;;18.20;99.90;;;18.36;100.00;99648.84;5053146;28;20095;-74
2023/09/21 08:53:24;;;;;;;2.72;2.63;;;18.10;99.90;;;17.76;100.00;99633.47;5052992;28;20036;-77
2023/09/21 08:55:56;;;;;;;2.75;2.65;;;17.60;99.90;;;17.95;100.00;99656.47;5052942;28;20430;-77
2023/09/21 08:58:28;;;;;;;2.60;2.50;;;17.60;99.90;;;17.84;100.00;99661.53;5053239;28;20120;-77
2023/09/21 09:00:58;;;;;;;2.78;2.67;;;17.50;99.90;;;18.00;100.00;99675.81;5051790;28;20053;-76
2023/09/21 09:03:28;;;;;;;2.78;2.67;;;17.60;99.90;;;17.98;100.00;99679.53;5052868;28;20041;-72
2023/09/21 09:05:59;;;;;;;2.70;2.60;;;17.60;99.90;;;18.13;100.00;99689.41;5053186;28;20057;-77
2023/09/21 09:08:28;;;;;;;;;;;17.60;99.90;;;18.23;100.00;99693.31;5052896;28;20041;-76
2023/09/21 09:10:56;;;;;;;2.65;2.55;;;17.80;99.90;;;18.20;100.00;99693.47;5053080;28;19920;-77
2023/09/21 09:13:32;;;;;;;3.00;2.90;;;17.80;99.90;;;18.38;100.00;99708.53;5052274;28;20049;-77
2023/09/21 09:16:00;;;;;;;2.95;2.85;;;17.90;99.90;;;18.45;100.00;99706.41;5052409;28;20037;-77
2023/09/21 09:18:30;;;;;;;3.08;2.97;;;18.10;99.90;;;18.56;100.00;99718.25;5047875;28;20037;-76
2023/09/21 09:20:59;;;;;;;2.42;2.33;;;18.20;99.90;;;18.53;100.00;99722.91;5049181;28;20126;-77
2023/09/21 09:23:27;;;;;;;2.50;2.40;;;18.20;99.90;;;18.55;100.00;99715.66;5052457;28;20649;-76
2023/09/21 09:25:56;;;;;;;2.58;2.47;;;18.20;99.90;;;18.21;100.00;99711.28;5052379;28;20108;-76
2023/09/21 09:28:24;;;;;;;2.63;2.53;;;17.90;99.90;;;18.35;100.00;99707.84;5052247;28;20539;-75
2023/09/21 09:30:53;;;;;;;3.03;2.92;;;17.90;99.90;;;18.48;100.00;99731.22;5052495;28;20041;-77
2023/09/21 09:33:25;;;;;;;2.53;2.42;;;18.10;99.90;;;18.62;100.00;99739.34;5052349;28;20041;-77
2023/09/21 09:35:58;;;;;;;2.85;2.75;;;18.20;99.90;;;18.71;100.00;99754.06;5052554;28;20057;-75
2023/09/21 09:38:27;;;;;;;2.60;2.50;;;18.30;99.90;;;18.78;100.00;99753.63;5064660;28;20080;-76
2023/09/21 09:40:56;;;;;;;2.30;2.20;;;18.40;99.90;;;18.79;100.00;99747.31;5050542;28;20110;-73
2023/09/21 09:43:28;;;;;;;2.40;2.30;;;18.40;99.90;;;18.83;100.00;99746.19;5052366;28;20477;-75
2023/09/21 09:46:00;;;;;;;2.70;2.60;;;18.50;99.90;;;18.79;100.00;99741.09;5052336;28;20171;-78
2023/09/21 09:48:30;;;;;;;2.85;2.75;;;18.40;99.90;;;18.81;100.00;99723.97;5052323;28;20144;-78
2023/09/21 09:51:09;;;;;;;2.75;2.65;;;18.50;99.90;;;18.89;100.00;99726.25;5036048;28;20033;-70
2023/09/21 09:53:39;;;;;;;5.05;4.85;;;18.50;99.90;;;18.79;99.74;99709.78;5064572;28;20056;-72
2023/09/21 09:56:09;;;;;;;2.67;2.58;;;18.50;99.90;;;18.93;99.60;99723.28;5045690;28;20056;-73
2023/09/21 09:58:41;;;;;;;2.35;2.25;;;18.50;99.90;;;18.98;98.56;99727.53;5052249;28;20069;-73
2023/09/21 10:01:12;;;;;;;2.78;2.67;;;18.70;99.90;;;18.76;98.02;99711.78;5064347;28;20457;-72
2023/09/21 10:03:43;;;;;;;2.60;2.50;;;18.60;99.90;;;19.07;96.61;99735.91;5052337;28;20045;-73
2023/09/21 10:06:14;;;;;;;2.50;2.40;;;18.80;99.90;;;19.12;97.37;99741.00;5055365;28;20421;-72
2023/09/21 10:08:43;;;;;;;2.60;2.50;;;18.80;99.90;;;19.06;97.30;99738.69;5052143;28;20098;-72
2023/09/21 10:11:13;;;;;;;2.42;2.33;;;18.80;99.90;;;19.14;96.91;99736.44;5051589;28;20144;-72
2023/09/21 10:13:51;;;;;;;2.70;2.60;;;18.80;99.90;;;19.08;95.68;99715.34;5051731;28;20049;-72
2023/09/21 10:16:21;;;;;;;3.05;2.95;;;18.80;99.90;;;18.81;95.62;99681.09;5050238;28;20049;-77
2023/09/21 10:18:57;;;;;;;2.90;2.80;;;18.70;99.90;;;19.01;94.38;99713.97;5051620;28;20048;-78
2023/09/21 10:21:32;;;;;;;5.53;2.88;;;18.70;99.90;;;18.35;90.10;99675.72;5063865;28;20144;-77
2023/09/21 10:24:03;;;;;;;2.70;2.60;;;18.30;99.90;;;17.94;90.25;99587.00;5047620;28;20425;-75
2023/09/21 10:26:34;;;;;;;2.97;2.88;;;18.30;99.90;;;18.61;89.02;99693.91;5036240;28;20148;-76
2023/09/21 10:29:04;;;;;;;3.15;3.05;;;18.20;99.90;;;18.53;88.98;99694.34;5051589;28;20056;-73